This is the latest recevied weather packets stored in our database for station/object KB3YCK-2. If no packets are shown the sender has not sent any weather packets the latest 10 day(s).
| Time | Temp. | Humidity | Pressure | Rain* | Wind** | Luminosity | Snow |
|---|---|---|---|---|---|---|---|
| 1778039105 | 19.44° C | 75% | 1010.8 hPa | 0 mm | - | 0 W/m² | - |
| 1778038203 | 19.44° C | 75% | 1010.8 hPa | 0 mm | - | 0 W/m² | - |
| 1778036412 | 20° C | 75% | 1010.8 hPa | 0 mm | - | 0 W/m² | - |
| 1778034902 | 20° C | 74% | 1011 hPa | 0 mm | - | 0 W/m² | - |
| 1778032206 | 20.56° C | 72% | 1010.8 hPa | 0 mm | - | 0 W/m² | - |
| 1778028904 | 21.67° C | 69% | 1010.2 hPa | 0 mm | - | 0 W/m² | - |
| 1778026516 | 22.78° C | 67% | 1009.9 hPa | 0 mm | - | 0 W/m² | - |
| 1778025903 | 22.78° C | 66% | 1009.7 hPa | 0 mm | - | 0 W/m² | - |
| 1778025003 | 23.33° C | 64% | 1009.6 hPa | 0 mm | - | 5 W/m² | - |
| 1778021705 | 25° C | 61% | 1009.4 hPa | 0 mm | - | 44 W/m² | - |
| 1778021116 | 25° C | 60% | 1009.5 hPa | 0 mm | - | 60 W/m² | - |
| 1778015101 | 26.67° C | 61% | 1009.4 hPa | 0 mm | - | 512 W/m² | - |
| 1778013902 | 27.22° C | 60% | 1009.4 hPa | 0 mm | - | 492 W/m² | - |
| 1778013302 | 26.67° C | 61% | 1009.4 hPa | 0 mm | - | 605 W/m² | - |
| 1778012401 | 26.67° C | 60% | 1009.5 hPa | 0 mm | - | 580 W/m² | - |
| 1778010902 | 26.67° C | 60% | 1009.6 hPa | 0 mm | - | 587 W/m² | - |
| 1778008502 | 26.67° C | 61% | 1009.9 hPa | 0 mm | - | 749 W/m² | - |
| 1778002803 | 26.11° C | 66% | 1010.9 hPa | 0 mm | - | 884 W/m² | - |
| 1778001603 | 25.56° C | 66% | 1011.2 hPa | 0 mm | - | 891 W/m² | - |
| 1778001003 | 25.56° C | 72% | 1011.4 hPa | 0 mm | - | 893 W/m² | - |
| 1777998927 | 25° C | 68% | 1011.5 hPa | 0 mm | - | 886 W/m² | - |
| 1777998606 | 25° C | 71% | 1011.7 hPa | 0 mm | - | 882 W/m² | - |
| 1777998303 | 24.44° C | 72% | 1011.6 hPa | 0 mm | - | 877 W/m² | - |
| 1777997102 | 23.89° C | 70% | 1011.8 hPa | 0 mm | - | 867 W/m² | - |
| 1777996202 | 23.89° C | 70% | 1011.8 hPa | 0 mm | - | 854 W/m² | - |
* Rain latest hour (hover to see other rain measurements)
** Current wind speed in m/s (hover to see current wind gust speed)